Aérodrome :
LOGIN :

S'inscrire | Disclaimer

   EN    FR    IT 

 










Légende :    VFR   VFR Marginal   IFR   IFR Intensif   IFR Très Intensif
Visi : 
Plafond : 
>= 8 km
>= 3000ft
5 à 8 km
1000 à 3000 ft
1500m à 5 km
500 à 1000 ft
800 à 1500m
200 à 500 ft
< 800m
< 200 ft
Symboles :   Orages  Brouillard  Fortes neiges  Fortes précipitations  Vent > 20 kt
SIGMETs :   Divers  Orages  Givrage  Turbulence  Onde Orograph.  Cendres Volcan.







- Altitude de l'aérodrome : 313 ft
- Voir les cartes d'approche


LFQA - Reims-Prunay

DERNIER METAR :
  • 201530Z AUTO 25005KT 220V280 CAVOK 22/10 Q1024

METARs EXPIRÉS :
  • 201500Z AUTO 29005KT 250V330 9999 FEW049 SCT090 22/09 Q1024
  • 201430Z AUTO 27004KT 210V340 9999 BKN048/// BKN062/// ///TCU 21/10 Q1024
  • 201400Z AUTO 36003KT 310V070 9999 BKN047 BKN064 OVC078 21/11 Q1024
  • 201330Z AUTO 00000KT 9999 ///TCU 21/10 Q1024
  • 201300Z AUTO 35004KT 310V040 9999 FEW043 SCT066 BKN080 21/10 Q1024

TAF N/A
Pas de NOTAMs connus pour ce terrain.



MET'MAP, la Météo Aéronautique d'un coup d'oeil ! - Copyright ORBIFLY Décembre 2007 - Disclaimer

ORBIFLY MET'MAP TEAM :

Programmation & Développement : Alexandra Zaïnal
Conception & Développement : Baudouin d'Aumeries
Co-Programmation & Développement : Marc-Olivier Méhu
Soutien technique & logistique : Manuel Goepfert

Contact : metmap@orbifly.com




SOURCES & CREDITS :

   NOAA